sensor_id;sensor_type;location;lat;lon;timestamp;P1;durP1;ratioP1;P2;durP2;ratioP2
42338;SDS011;27993;45.392;10.918;2023-10-08T00:01:57;40.67;;;23.73;;
42338;SDS011;27993;45.392;10.918;2023-10-08T00:04:28;42.90;;;23.52;;
42338;SDS011;27993;45.392;10.918;2023-10-08T00:06:59;40.15;;;22.67;;
42338;SDS011;27993;45.392;10.918;2023-10-08T00:09:30;39.28;;;23.25;;
42338;SDS011;27993;45.392;10.918;2023-10-08T00:12:05;48.60;;;24.55;;
42338;SDS011;27993;45.392;10.918;2023-10-08T00:14:38;45.97;;;23.40;;
42338;SDS011;27993;45.392;10.918;2023-10-08T00:17:14;36.10;;;22.83;;
42338;SDS011;27993;45.392;10.918;2023-10-08T00:19:45;40.80;;;24.63;;
42338;SDS011;27993;45.392;10.918;2023-10-08T00:22:17;43.00;;;23.73;;
42338;SDS011;27993;45.392;10.918;2023-10-08T00:24:49;42.47;;;22.73;;
42338;SDS011;27993;45.392;10.918;2023-10-08T00:27:27;42.67;;;24.30;;
42338;SDS011;27993;45.392;10.918;2023-10-08T00:32:47;35.03;;;21.95;;
42338;SDS011;27993;45.392;10.918;2023-10-08T00:35:18;40.22;;;23.73;;
42338;SDS011;27993;45.392;10.918;2023-10-08T00:37:50;46.72;;;21.75;;
42338;SDS011;27993;45.392;10.918;2023-10-08T00:40:21;43.45;;;21.85;;
42338;SDS011;27993;45.392;10.918;2023-10-08T00:42:53;58.05;;;21.92;;
42338;SDS011;27993;45.392;10.918;2023-10-08T00:45:26;32.53;;;20.70;;
42338;SDS011;27993;45.392;10.918;2023-10-08T00:48:00;38.95;;;21.90;;
42338;SDS011;27993;45.392;10.918;2023-10-08T00:50:31;44.22;;;22.42;;
42338;SDS011;27993;45.392;10.918;2023-10-08T00:53:12;35.28;;;21.17;;
42338;SDS011;27993;45.392;10.918;2023-10-08T00:55:53;37.30;;;21.33;;
42338;SDS011;27993;45.392;10.918;2023-10-08T00:58:34;44.40;;;21.25;;
42338;SDS011;27993;45.392;10.918;2023-10-08T01:01:05;34.80;;;21.25;;
42338;SDS011;27993;45.392;10.918;2023-10-08T01:03:40;37.80;;;22.42;;
42338;SDS011;27993;45.392;10.918;2023-10-08T01:06:14;40.67;;;21.50;;
42338;SDS011;27993;45.392;10.918;2023-10-08T01:08:48;38.42;;;21.15;;
42338;SDS011;27993;45.392;10.918;2023-10-08T01:11:24;33.25;;;19.37;;
42338;SDS011;27993;45.392;10.918;2023-10-08T01:14:02;40.45;;;22.13;;
42338;SDS011;27993;45.392;10.918;2023-10-08T01:16:37;36.65;;;20.10;;
42338;SDS011;27993;45.392;10.918;2023-10-08T01:19:11;41.20;;;21.37;;
42338;SDS011;27993;45.392;10.918;2023-10-08T01:21:43;34.80;;;20.58;;
42338;SDS011;27993;45.392;10.918;2023-10-08T01:26:47;34.22;;;18.90;;
42338;SDS011;27993;45.392;10.918;2023-10-08T01:29:18;38.38;;;19.67;;
42338;SDS011;27993;45.392;10.918;2023-10-08T01:31:49;34.67;;;20.62;;
42338;SDS011;27993;45.392;10.918;2023-10-08T01:34:23;30.60;;;18.27;;
42338;SDS011;27993;45.392;10.918;2023-10-08T01:37:00;30.27;;;17.70;;
42338;SDS011;27993;45.392;10.918;2023-10-08T01:39:33;33.22;;;19.37;;
42338;SDS011;27993;45.392;10.918;2023-10-08T01:42:04;34.65;;;19.75;;
42338;SDS011;27993;45.392;10.918;2023-10-08T01:44:35;33.45;;;18.62;;
42338;SDS011;27993;45.392;10.918;2023-10-08T01:47:06;33.50;;;19.58;;
42338;SDS011;27993;45.392;10.918;2023-10-08T01:49:38;29.75;;;19.27;;
42338;SDS011;27993;45.392;10.918;2023-10-08T01:52:10;41.92;;;19.20;;
42338;SDS011;27993;45.392;10.918;2023-10-08T01:54:50;31.52;;;18.02;;
42338;SDS011;27993;45.392;10.918;2023-10-08T01:57:24;29.45;;;18.98;;
42338;SDS011;27993;45.392;10.918;2023-10-08T01:59:55;30.50;;;18.75;;
42338;SDS011;27993;45.392;10.918;2023-10-08T02:02:26;39.53;;;20.42;;
42338;SDS011;27993;45.392;10.918;2023-10-08T02:04:57;36.53;;;19.30;;
42338;SDS011;27993;45.392;10.918;2023-10-08T02:07:28;37.45;;;19.45;;
42338;SDS011;27993;45.392;10.918;2023-10-08T02:10:00;31.45;;;19.40;;
42338;SDS011;27993;45.392;10.918;2023-10-08T02:12:31;34.78;;;17.25;;
42338;SDS011;27993;45.392;10.918;2023-10-08T02:15:02;31.00;;;17.87;;
42338;SDS011;27993;45.392;10.918;2023-10-08T02:17:34;37.05;;;19.00;;
42338;SDS011;27993;45.392;10.918;2023-10-08T02:20:05;35.00;;;17.73;;
42338;SDS011;27993;45.392;10.918;2023-10-08T02:22:36;31.00;;;17.62;;
42338;SDS011;27993;45.392;10.918;2023-10-08T02:27:41;32.13;;;18.10;;
42338;SDS011;27993;45.392;10.918;2023-10-08T02:30:12;27.08;;;16.40;;
42338;SDS011;27993;45.392;10.918;2023-10-08T02:32:43;32.80;;;17.05;;
42338;SDS011;27993;45.392;10.918;2023-10-08T02:35:15;25.55;;;16.30;;
42338;SDS011;27993;45.392;10.918;2023-10-08T02:37:47;24.27;;;15.85;;
42338;SDS011;27993;45.392;10.918;2023-10-08T02:40:18;25.75;;;15.88;;
42338;SDS011;27993;45.392;10.918;2023-10-08T02:42:58;34.70;;;16.05;;
42338;SDS011;27993;45.392;10.918;2023-10-08T02:45:30;25.88;;;15.77;;
42338;SDS011;27993;45.392;10.918;2023-10-08T02:48:01;24.73;;;15.52;;
42338;SDS011;27993;45.392;10.918;2023-10-08T02:50:32;21.62;;;15.15;;
42338;SDS011;27993;45.392;10.918;2023-10-08T02:53:03;24.70;;;14.40;;
42338;SDS011;27993;45.392;10.918;2023-10-08T02:55:40;25.92;;;13.98;;
42338;SDS011;27993;45.392;10.918;2023-10-08T02:58:16;29.25;;;14.98;;
42338;SDS011;27993;45.392;10.918;2023-10-08T03:00:49;26.37;;;14.95;;
42338;SDS011;27993;45.392;10.918;2023-10-08T03:03:20;23.05;;;14.93;;
42338;SDS011;27993;45.392;10.918;2023-10-08T03:05:54;33.65;;;14.82;;
42338;SDS011;27993;45.392;10.918;2023-10-08T03:08:26;26.15;;;14.80;;
42338;SDS011;27993;45.392;10.918;2023-10-08T03:11:01;34.72;;;15.32;;
42338;SDS011;27993;45.392;10.918;2023-10-08T03:13:35;26.70;;;15.00;;
42338;SDS011;27993;45.392;10.918;2023-10-08T03:16:11;25.90;;;13.88;;
42338;SDS011;27993;45.392;10.918;2023-10-08T03:18:43;29.12;;;14.15;;
42338;SDS011;27993;45.392;10.918;2023-10-08T03:21:20;27.48;;;13.13;;
42338;SDS011;27993;45.392;10.918;2023-10-08T03:23:51;24.75;;;13.23;;
42338;SDS011;27993;45.392;10.918;2023-10-08T03:26:27;27.98;;;15.52;;
42338;SDS011;27993;45.392;10.918;2023-10-08T03:29:02;20.25;;;13.35;;
42338;SDS011;27993;45.392;10.918;2023-10-08T03:31:45;22.55;;;13.88;;
42338;SDS011;27993;45.392;10.918;2023-10-08T03:34:17;21.77;;;13.45;;
42338;SDS011;27993;45.392;10.918;2023-10-08T03:36:57;23.20;;;13.23;;
42338;SDS011;27993;45.392;10.918;2023-10-08T03:39:37;25.20;;;12.32;;
42338;SDS011;27993;45.392;10.918;2023-10-08T03:42:26;21.45;;;12.77;;
42338;SDS011;27993;45.392;10.918;2023-10-08T03:45:05;18.20;;;12.43;;
42338;SDS011;27993;45.392;10.918;2023-10-08T03:47:42;20.98;;;12.77;;
42338;SDS011;27993;45.392;10.918;2023-10-08T03:50:23;28.27;;;13.17;;
42338;SDS011;27993;45.392;10.918;2023-10-08T03:53:02;21.27;;;10.80;;
42338;SDS011;27993;45.392;10.918;2023-10-08T03:55:33;20.77;;;11.88;;
42338;SDS011;27993;45.392;10.918;2023-10-08T03:58:05;18.35;;;10.73;;
42338;SDS011;27993;45.392;10.918;2023-10-08T04:00:42;24.90;;;11.73;;
42338;SDS011;27993;45.392;10.918;2023-10-08T04:03:16;21.67;;;11.10;;
42338;SDS011;27993;45.392;10.918;2023-10-08T04:06:06;25.55;;;11.45;;
42338;SDS011;27993;45.392;10.918;2023-10-08T04:08:52;19.77;;;11.48;;
42338;SDS011;27993;45.392;10.918;2023-10-08T04:11:41;18.05;;;11.12;;
42338;SDS011;27993;45.392;10.918;2023-10-08T04:14:19;19.08;;;10.38;;
42338;SDS011;27993;45.392;10.918;2023-10-08T04:16:51;17.90;;;11.45;;
42338;SDS011;27993;45.392;10.918;2023-10-08T04:19:22;16.55;;;9.77;;
42338;SDS011;27993;45.392;10.918;2023-10-08T04:21:56;12.32;;;8.27;;
42338;SDS011;27993;45.392;10.918;2023-10-08T04:24:27;15.63;;;9.13;;
42338;SDS011;27993;45.392;10.918;2023-10-08T04:26:58;11.18;;;7.37;;
42338;SDS011;27993;45.392;10.918;2023-10-08T04:29:33;16.35;;;9.40;;
42338;SDS011;27993;45.392;10.918;2023-10-08T04:32:06;14.60;;;8.32;;
42338;SDS011;27993;45.392;10.918;2023-10-08T04:34:37;15.35;;;7.15;;
42338;SDS011;27993;45.392;10.918;2023-10-08T04:37:14;16.87;;;8.13;;
42338;SDS011;27993;45.392;10.918;2023-10-08T04:39:49;12.20;;;6.75;;
42338;SDS011;27993;45.392;10.918;2023-10-08T04:42:28;11.02;;;6.87;;
42338;SDS011;27993;45.392;10.918;2023-10-08T04:44:59;11.68;;;6.80;;
42338;SDS011;27993;45.392;10.918;2023-10-08T04:47:32;13.57;;;7.07;;
42338;SDS011;27993;45.392;10.918;2023-10-08T04:50:04;10.15;;;5.57;;
42338;SDS011;27993;45.392;10.918;2023-10-08T04:52:36;23.85;;;7.10;;
42338;SDS011;27993;45.392;10.918;2023-10-08T04:55:15;10.30;;;5.80;;
42338;SDS011;27993;45.392;10.918;2023-10-08T04:57:50;14.20;;;7.00;;
42338;SDS011;27993;45.392;10.918;2023-10-08T05:00:22;11.75;;;7.40;;
42338;SDS011;27993;45.392;10.918;2023-10-08T05:03:13;17.70;;;7.18;;
42338;SDS011;27993;45.392;10.918;2023-10-08T05:05:45;7.47;;;5.72;;
42338;SDS011;27993;45.392;10.918;2023-10-08T05:08:32;10.07;;;6.50;;
42338;SDS011;27993;45.392;10.918;2023-10-08T05:11:14;10.27;;;6.30;;
42338;SDS011;27993;45.392;10.918;2023-10-08T05:13:54;11.38;;;6.03;;
42338;SDS011;27993;45.392;10.918;2023-10-08T05:16:32;10.68;;;6.05;;
42338;SDS011;27993;45.392;10.918;2023-10-08T05:19:13;16.50;;;6.22;;
42338;SDS011;27993;45.392;10.918;2023-10-08T05:22:04;7.68;;;4.93;;
42338;SDS011;27993;45.392;10.918;2023-10-08T05:24:54;8.60;;;5.22;;
42338;SDS011;27993;45.392;10.918;2023-10-08T05:28:01;11.93;;;5.97;;
42338;SDS011;27993;45.392;10.918;2023-10-08T05:30:39;8.35;;;5.85;;
42338;SDS011;27993;45.392;10.918;2023-10-08T05:33:24;11.12;;;4.75;;
42338;SDS011;27993;45.392;10.918;2023-10-08T05:35:58;7.68;;;4.15;;
42338;SDS011;27993;45.392;10.918;2023-10-08T05:38:40;9.75;;;5.12;;
42338;SDS011;27993;45.392;10.918;2023-10-08T05:41:19;5.68;;;4.45;;
42338;SDS011;27993;45.392;10.918;2023-10-08T05:44:09;11.27;;;5.03;;
42338;SDS011;27993;45.392;10.918;2023-10-08T05:47:06;11.80;;;6.37;;
42338;SDS011;27993;45.392;10.918;2023-10-08T05:49:57;12.80;;;7.50;;
42338;SDS011;27993;45.392;10.918;2023-10-08T05:52:47;10.68;;;7.60;;
42338;SDS011;27993;45.392;10.918;2023-10-08T05:55:28;14.40;;;8.50;;
42338;SDS011;27993;45.392;10.918;2023-10-08T05:58:04;18.87;;;7.65;;
42338;SDS011;27993;45.392;10.918;2023-10-08T06:00:54;11.68;;;7.03;;
42338;SDS011;27993;45.392;10.918;2023-10-08T06:03:37;12.45;;;7.05;;
42338;SDS011;27993;45.392;10.918;2023-10-08T06:08:49;21.42;;;9.88;;
42338;SDS011;27993;45.392;10.918;2023-10-08T06:11:39;16.70;;;9.13;;
42338;SDS011;27993;45.392;10.918;2023-10-08T06:14:36;17.33;;;9.63;;
42338;SDS011;27993;45.392;10.918;2023-10-08T06:17:33;7.85;;;5.28;;
42338;SDS011;27993;45.392;10.918;2023-10-08T06:20:24;15.02;;;4.70;;
42338;SDS011;27993;45.392;10.918;2023-10-08T06:22:57;12.95;;;5.03;;
42338;SDS011;27993;45.392;10.918;2023-10-08T06:25:33;7.18;;;3.87;;
42338;SDS011;27993;45.392;10.918;2023-10-08T06:28:15;9.32;;;5.60;;
42338;SDS011;27993;45.392;10.918;2023-10-08T06:30:50;9.88;;;4.85;;
42338;SDS011;27993;45.392;10.918;2023-10-08T06:33:25;13.13;;;5.22;;
42338;SDS011;27993;45.392;10.918;2023-10-08T06:36:00;7.68;;;5.10;;
42338;SDS011;27993;45.392;10.918;2023-10-08T06:38:32;5.28;;;3.45;;
42338;SDS011;27993;45.392;10.918;2023-10-08T06:41:05;6.03;;;4.40;;
42338;SDS011;27993;45.392;10.918;2023-10-08T06:43:46;8.48;;;4.70;;
42338;SDS011;27993;45.392;10.918;2023-10-08T06:46:32;6.20;;;4.25;;
42338;SDS011;27993;45.392;10.918;2023-10-08T06:49:06;8.93;;;4.97;;
42338;SDS011;27993;45.392;10.918;2023-10-08T06:51:41;7.87;;;3.67;;
42338;SDS011;27993;45.392;10.918;2023-10-08T06:54:18;6.12;;;4.43;;
42338;SDS011;27993;45.392;10.918;2023-10-08T06:56:49;13.90;;;3.65;;
42338;SDS011;27993;45.392;10.918;2023-10-08T06:59:23;11.23;;;4.20;;
42338;SDS011;27993;45.392;10.918;2023-10-08T07:01:55;7.80;;;4.28;;
42338;SDS011;27993;45.392;10.918;2023-10-08T07:04:28;11.80;;;4.82;;
42338;SDS011;27993;45.392;10.918;2023-10-08T07:06:59;8.10;;;4.28;;
42338;SDS011;27993;45.392;10.918;2023-10-08T07:09:30;6.85;;;4.70;;
42338;SDS011;27993;45.392;10.918;2023-10-08T07:12:06;13.20;;;4.40;;
42338;SDS011;27993;45.392;10.918;2023-10-08T07:14:43;11.73;;;4.25;;
42338;SDS011;27993;45.392;10.918;2023-10-08T07:17:16;11.73;;;4.60;;
42338;SDS011;27993;45.392;10.918;2023-10-08T07:19:49;8.00;;;5.78;;
42338;SDS011;27993;45.392;10.918;2023-10-08T07:22:20;9.15;;;4.93;;
42338;SDS011;27993;45.392;10.918;2023-10-08T07:24:52;6.85;;;5.20;;
42338;SDS011;27993;45.392;10.918;2023-10-08T07:27:25;10.02;;;6.03;;
42338;SDS011;27993;45.392;10.918;2023-10-08T07:30:02;11.70;;;6.50;;
42338;SDS011;27993;45.392;10.918;2023-10-08T07:32:40;9.18;;;6.47;;
42338;SDS011;27993;45.392;10.918;2023-10-08T07:35:11;12.82;;;7.45;;
42338;SDS011;27993;45.392;10.918;2023-10-08T07:37:54;16.40;;;6.55;;
42338;SDS011;27993;45.392;10.918;2023-10-08T07:40:27;10.48;;;5.45;;
42338;SDS011;27993;45.392;10.918;2023-10-08T07:42:59;13.25;;;5.18;;
42338;SDS011;27993;45.392;10.918;2023-10-08T07:45:38;12.27;;;5.35;;
42338;SDS011;27993;45.392;10.918;2023-10-08T07:48:09;9.05;;;5.70;;
42338;SDS011;27993;45.392;10.918;2023-10-08T07:50:41;7.28;;;4.45;;
42338;SDS011;27993;45.392;10.918;2023-10-08T07:53:12;13.65;;;5.28;;
42338;SDS011;27993;45.392;10.918;2023-10-08T07:55:48;11.93;;;5.20;;
42338;SDS011;27993;45.392;10.918;2023-10-08T07:58:19;7.53;;;4.85;;
42338;SDS011;27993;45.392;10.918;2023-10-08T08:00:50;19.98;;;5.25;;
42338;SDS011;27993;45.392;10.918;2023-10-08T08:03:24;6.12;;;4.97;;
42338;SDS011;27993;45.392;10.918;2023-10-08T08:05:55;6.22;;;4.43;;
42338;SDS011;27993;45.392;10.918;2023-10-08T08:08:26;6.68;;;4.22;;
42338;SDS011;27993;45.392;10.918;2023-10-08T08:10:57;6.30;;;5.70;;
42338;SDS011;27993;45.392;10.918;2023-10-08T08:13:34;13.10;;;5.82;;
42338;SDS011;27993;45.392;10.918;2023-10-08T08:16:05;7.43;;;5.62;;
42338;SDS011;27993;45.392;10.918;2023-10-08T08:18:50;8.90;;;5.22;;
42338;SDS011;27993;45.392;10.918;2023-10-08T08:21:29;12.63;;;5.65;;
42338;SDS011;27993;45.392;10.918;2023-10-08T08:24:00;11.18;;;5.15;;
42338;SDS011;27993;45.392;10.918;2023-10-08T08:26:38;9.13;;;6.18;;
42338;SDS011;27993;45.392;10.918;2023-10-08T08:29:31;8.77;;;5.78;;
42338;SDS011;27993;45.392;10.918;2023-10-08T08:32:14;7.60;;;6.82;;
42338;SDS011;27993;45.392;10.918;2023-10-08T08:34:51;9.27;;;6.12;;
42338;SDS011;27993;45.392;10.918;2023-10-08T08:37:22;8.52;;;5.78;;
42338;SDS011;27993;45.392;10.918;2023-10-08T08:39:57;9.73;;;6.12;;
42338;SDS011;27993;45.392;10.918;2023-10-08T08:42:28;14.80;;;6.80;;
42338;SDS011;27993;45.392;10.918;2023-10-08T08:45:00;10.45;;;6.85;;
42338;SDS011;27993;45.392;10.918;2023-10-08T08:47:33;9.00;;;7.03;;
42338;SDS011;27993;45.392;10.918;2023-10-08T08:50:04;8.75;;;6.90;;
42338;SDS011;27993;45.392;10.918;2023-10-08T08:52:39;7.70;;;6.95;;
42338;SDS011;27993;45.392;10.918;2023-10-08T08:55:10;7.97;;;6.50;;
42338;SDS011;27993;45.392;10.918;2023-10-08T08:57:48;10.30;;;6.72;;
42338;SDS011;27993;45.392;10.918;2023-10-08T09:00:20;17.95;;;7.00;;
42338;SDS011;27993;45.392;10.918;2023-10-08T09:02:52;9.10;;;7.80;;
42338;SDS011;27993;45.392;10.918;2023-10-08T09:05:24;13.45;;;7.90;;
42338;SDS011;27993;45.392;10.918;2023-10-08T09:08:05;9.18;;;6.82;;
42338;SDS011;27993;45.392;10.918;2023-10-08T09:10:37;8.02;;;7.28;;
42338;SDS011;27993;45.392;10.918;2023-10-08T09:13:08;8.00;;;7.20;;
42338;SDS011;27993;45.392;10.918;2023-10-08T09:15:39;9.52;;;7.78;;
42338;SDS011;27993;45.392;10.918;2023-10-08T09:18:10;7.70;;;6.82;;
42338;SDS011;27993;45.392;10.918;2023-10-08T09:20:42;9.70;;;7.47;;
42338;SDS011;27993;45.392;10.918;2023-10-08T09:23:14;7.50;;;5.87;;
42338;SDS011;27993;45.392;10.918;2023-10-08T09:25:47;8.52;;;6.85;;
42338;SDS011;27993;45.392;10.918;2023-10-08T09:28:23;9.00;;;6.78;;
42338;SDS011;27993;45.392;10.918;2023-10-08T09:30:55;11.85;;;5.82;;
42338;SDS011;27993;45.392;10.918;2023-10-08T09:33:28;6.70;;;5.90;;
42338;SDS011;27993;45.392;10.918;2023-10-08T09:35:59;16.87;;;7.10;;
42338;SDS011;27993;45.392;10.918;2023-10-08T09:38:36;6.80;;;5.35;;
42338;SDS011;27993;45.392;10.918;2023-10-08T09:41:07;8.07;;;7.00;;
42338;SDS011;27993;45.392;10.918;2023-10-08T09:43:39;9.68;;;7.32;;
42338;SDS011;27993;45.392;10.918;2023-10-08T09:48:49;7.90;;;7.07;;
42338;SDS011;27993;45.392;10.918;2023-10-08T09:51:24;7.43;;;6.25;;
42338;SDS011;27993;45.392;10.918;2023-10-08T09:56:36;8.75;;;7.70;;
42338;SDS011;27993;45.392;10.918;2023-10-08T09:59:09;7.57;;;6.87;;
42338;SDS011;27993;45.392;10.918;2023-10-08T10:01:40;8.48;;;7.20;;
42338;SDS011;27993;45.392;10.918;2023-10-08T10:04:12;9.40;;;7.05;;
42338;SDS011;27993;45.392;10.918;2023-10-08T10:06:43;11.20;;;8.10;;
42338;SDS011;27993;45.392;10.918;2023-10-08T10:09:20;10.13;;;7.47;;
42338;SDS011;27993;45.392;10.918;2023-10-08T10:11:53;12.15;;;7.53;;
42338;SDS011;27993;45.392;10.918;2023-10-08T10:14:24;9.52;;;7.03;;
42338;SDS011;27993;45.392;10.918;2023-10-08T10:17:17;8.15;;;6.68;;
42338;SDS011;27993;45.392;10.918;2023-10-08T10:19:55;13.35;;;6.62;;
42338;SDS011;27993;45.392;10.918;2023-10-08T10:22:30;10.30;;;6.47;;
42338;SDS011;27993;45.392;10.918;2023-10-08T10:25:03;8.80;;;7.72;;
42338;SDS011;27993;45.392;10.918;2023-10-08T10:28:30;8.38;;;7.40;;
42338;SDS011;27993;45.392;10.918;2023-10-08T10:30:39;16.40;;;8.70;;
42338;SDS011;27993;45.392;10.918;2023-10-08T10:33:11;11.98;;;8.07;;
42338;SDS011;27993;45.392;10.918;2023-10-08T10:35:48;10.13;;;8.07;;
42338;SDS011;27993;45.392;10.918;2023-10-08T10:38:20;16.67;;;7.05;;
42338;SDS011;27993;45.392;10.918;2023-10-08T10:40:56;11.15;;;8.35;;
42338;SDS011;27993;45.392;10.918;2023-10-08T10:43:27;14.85;;;7.32;;
42338;SDS011;27993;45.392;10.918;2023-10-08T10:46:04;7.80;;;6.62;;
42338;SDS011;27993;45.392;10.918;2023-10-08T10:48:59;8.77;;;6.45;;
42338;SDS011;27993;45.392;10.918;2023-10-08T10:51:37;8.38;;;5.75;;
42338;SDS011;27993;45.392;10.918;2023-10-08T10:54:11;9.20;;;5.30;;
42338;SDS011;27993;45.392;10.918;2023-10-08T10:56:50;7.53;;;5.18;;
42338;SDS011;27993;45.392;10.918;2023-10-08T10:59:34;13.30;;;5.60;;
42338;SDS011;27993;45.392;10.918;2023-10-08T11:02:10;11.07;;;5.70;;
42338;SDS011;27993;45.392;10.918;2023-10-08T11:04:51;6.95;;;4.68;;
42338;SDS011;27993;45.392;10.918;2023-10-08T11:07:22;13.40;;;5.75;;
42338;SDS011;27993;45.392;10.918;2023-10-08T11:09:53;10.38;;;5.47;;
42338;SDS011;27993;45.392;10.918;2023-10-08T11:12:25;9.13;;;4.85;;
42338;SDS011;27993;45.392;10.918;2023-10-08T11:15:13;11.10;;;4.78;;
42338;SDS011;27993;45.392;10.918;2023-10-08T11:17:45;8.40;;;4.32;;
42338;SDS011;27993;45.392;10.918;2023-10-08T11:20:24;6.25;;;4.47;;
42338;SDS011;27993;45.392;10.918;2023-10-08T11:22:55;9.25;;;5.20;;
42338;SDS011;27993;45.392;10.918;2023-10-08T11:25:53;12.98;;;5.10;;
42338;SDS011;27993;45.392;10.918;2023-10-08T11:28:24;8.52;;;5.12;;
42338;SDS011;27993;45.392;10.918;2023-10-08T11:30:57;7.28;;;4.30;;
42338;SDS011;27993;45.392;10.918;2023-10-08T11:33:38;15.60;;;4.70;;
42338;SDS011;27993;45.392;10.918;2023-10-08T11:36:09;21.77;;;4.85;;
42338;SDS011;27993;45.392;10.918;2023-10-08T11:38:49;11.52;;;5.37;;
42338;SDS011;27993;45.392;10.918;2023-10-08T11:41:23;15.38;;;5.37;;
42338;SDS011;27993;45.392;10.918;2023-10-08T11:43:57;12.07;;;5.28;;
42338;SDS011;27993;45.392;10.918;2023-10-08T11:46:29;8.63;;;5.57;;
42338;SDS011;27993;45.392;10.918;2023-10-08T11:49:08;13.80;;;5.82;;
42338;SDS011;27993;45.392;10.918;2023-10-08T11:51:47;15.57;;;5.70;;
42338;SDS011;27993;45.392;10.918;2023-10-08T11:54:18;12.37;;;5.12;;
42338;SDS011;27993;45.392;10.918;2023-10-08T11:56:50;8.15;;;4.72;;
42338;SDS011;27993;45.392;10.918;2023-10-08T11:59:21;8.48;;;4.80;;
42338;SDS011;27993;45.392;10.918;2023-10-08T12:01:55;7.68;;;5.07;;
42338;SDS011;27993;45.392;10.918;2023-10-08T12:04:26;16.52;;;5.00;;
42338;SDS011;27993;45.392;10.918;2023-10-08T12:07:00;7.35;;;4.57;;
42338;SDS011;27993;45.392;10.918;2023-10-08T12:09:37;9.48;;;5.82;;
42338;SDS011;27993;45.392;10.918;2023-10-08T12:12:10;14.98;;;6.97;;
42338;SDS011;27993;45.392;10.918;2023-10-08T12:14:43;13.35;;;7.95;;
42338;SDS011;27993;45.392;10.918;2023-10-08T12:17:17;20.40;;;6.65;;
42338;SDS011;27993;45.392;10.918;2023-10-08T12:19:48;8.10;;;4.37;;
42338;SDS011;27993;45.392;10.918;2023-10-08T12:22:20;11.40;;;5.85;;
42338;SDS011;27993;45.392;10.918;2023-10-08T12:24:51;10.70;;;5.30;;
42338;SDS011;27993;45.392;10.918;2023-10-08T12:27:22;11.93;;;6.18;;
42338;SDS011;27993;45.392;10.918;2023-10-08T12:29:56;9.93;;;5.35;;
42338;SDS011;27993;45.392;10.918;2023-10-08T12:32:28;12.85;;;7.75;;
42338;SDS011;27993;45.392;10.918;2023-10-08T12:35:01;9.93;;;6.53;;
42338;SDS011;27993;45.392;10.918;2023-10-08T12:37:32;12.52;;;6.00;;
42338;SDS011;27993;45.392;10.918;2023-10-08T12:40:06;12.90;;;6.18;;
42338;SDS011;27993;45.392;10.918;2023-10-08T12:42:53;11.75;;;6.50;;
42338;SDS011;27993;45.392;10.918;2023-10-08T12:45:24;16.00;;;5.95;;
42338;SDS011;27993;45.392;10.918;2023-10-08T12:47:57;14.27;;;6.32;;
42338;SDS011;27993;45.392;10.918;2023-10-08T12:50:29;14.52;;;7.25;;
42338;SDS011;27993;45.392;10.918;2023-10-08T12:53:09;10.80;;;6.78;;
42338;SDS011;27993;45.392;10.918;2023-10-08T12:55:41;14.73;;;7.50;;
42338;SDS011;27993;45.392;10.918;2023-10-08T12:58:12;15.68;;;9.52;;
42338;SDS011;27993;45.392;10.918;2023-10-08T13:00:45;16.55;;;7.05;;
42338;SDS011;27993;45.392;10.918;2023-10-08T13:03:19;10.63;;;5.90;;
42338;SDS011;27993;45.392;10.918;2023-10-08T13:05:53;16.17;;;5.93;;
42338;SDS011;27993;45.392;10.918;2023-10-08T13:08:24;12.63;;;5.15;;
42338;SDS011;27993;45.392;10.918;2023-10-08T13:10:57;16.15;;;5.65;;
42338;SDS011;27993;45.392;10.918;2023-10-08T13:13:31;11.68;;;6.72;;
42338;SDS011;27993;45.392;10.918;2023-10-08T13:16:03;16.50;;;6.93;;
42338;SDS011;27993;45.392;10.918;2023-10-08T13:18:37;16.80;;;6.78;;
42338;SDS011;27993;45.392;10.918;2023-10-08T13:21:09;12.70;;;6.40;;
42338;SDS011;27993;45.392;10.918;2023-10-08T13:23:40;16.87;;;5.93;;
42338;SDS011;27993;45.392;10.918;2023-10-08T13:26:11;16.80;;;6.87;;
42338;SDS011;27993;45.392;10.918;2023-10-08T13:28:47;12.52;;;5.47;;
42338;SDS011;27993;45.392;10.918;2023-10-08T13:31:18;12.90;;;6.22;;
42338;SDS011;27993;45.392;10.918;2023-10-08T13:33:49;11.25;;;5.25;;
42338;SDS011;27993;45.392;10.918;2023-10-08T13:36:22;14.05;;;6.43;;
42338;SDS011;27993;45.392;10.918;2023-10-08T13:38:54;18.23;;;7.57;;
42338;SDS011;27993;45.392;10.918;2023-10-08T13:41:25;10.55;;;6.78;;
42338;SDS011;27993;45.392;10.918;2023-10-08T13:43:59;12.00;;;7.07;;
42338;SDS011;27993;45.392;10.918;2023-10-08T13:46:35;14.20;;;7.22;;
42338;SDS011;27993;45.392;10.918;2023-10-08T13:49:06;15.95;;;5.80;;
42338;SDS011;27993;45.392;10.918;2023-10-08T13:51:38;14.43;;;7.93;;
42338;SDS011;27993;45.392;10.918;2023-10-08T13:54:09;9.43;;;5.50;;
42338;SDS011;27993;45.392;10.918;2023-10-08T13:56:41;10.45;;;5.97;;
42338;SDS011;27993;45.392;10.918;2023-10-08T13:59:18;15.45;;;6.12;;
42338;SDS011;27993;45.392;10.918;2023-10-08T14:01:49;7.03;;;5.07;;
42338;SDS011;27993;45.392;10.918;2023-10-08T14:04:24;9.90;;;6.18;;
42338;SDS011;27993;45.392;10.918;2023-10-08T14:07:08;12.25;;;6.65;;
42338;SDS011;27993;45.392;10.918;2023-10-08T14:09:40;9.43;;;5.03;;
42338;SDS011;27993;45.392;10.918;2023-10-08T14:12:12;13.30;;;6.03;;
42338;SDS011;27993;45.392;10.918;2023-10-08T14:14:43;14.57;;;6.68;;
42338;SDS011;27993;45.392;10.918;2023-10-08T14:17:16;13.35;;;5.20;;
42338;SDS011;27993;45.392;10.918;2023-10-08T14:20:07;16.55;;;6.40;;
42338;SDS011;27993;45.392;10.918;2023-10-08T14:22:43;21.12;;;7.25;;
42338;SDS011;27993;45.392;10.918;2023-10-08T14:25:14;23.58;;;7.93;;
42338;SDS011;27993;45.392;10.918;2023-10-08T14:27:47;14.98;;;6.07;;
42338;SDS011;27993;45.392;10.918;2023-10-08T14:30:22;12.00;;;6.43;;
42338;SDS011;27993;45.392;10.918;2023-10-08T14:32:55;18.98;;;6.50;;
42338;SDS011;27993;45.392;10.918;2023-10-08T14:35:27;19.08;;;6.75;;
42338;SDS011;27993;45.392;10.918;2023-10-08T14:38:16;10.07;;;7.47;;
42338;SDS011;27993;45.392;10.918;2023-10-08T14:41:06;11.12;;;5.97;;
42338;SDS011;27993;45.392;10.918;2023-10-08T14:44:03;13.07;;;6.70;;
42338;SDS011;27993;45.392;10.918;2023-10-08T14:46:36;12.55;;;5.90;;
42338;SDS011;27993;45.392;10.918;2023-10-08T14:49:08;21.75;;;7.03;;
42338;SDS011;27993;45.392;10.918;2023-10-08T14:51:40;19.67;;;7.10;;
42338;SDS011;27993;45.392;10.918;2023-10-08T14:54:11;16.30;;;7.55;;
42338;SDS011;27993;45.392;10.918;2023-10-08T14:56:42;10.25;;;6.85;;
42338;SDS011;27993;45.392;10.918;2023-10-08T14:59:13;12.20;;;7.72;;
42338;SDS011;27993;45.392;10.918;2023-10-08T15:01:45;15.20;;;7.65;;
42338;SDS011;27993;45.392;10.918;2023-10-08T15:04:17;23.08;;;8.23;;
42338;SDS011;27993;45.392;10.918;2023-10-08T15:06:48;18.80;;;8.40;;
42338;SDS011;27993;45.392;10.918;2023-10-08T15:09:19;18.60;;;7.93;;
42338;SDS011;27993;45.392;10.918;2023-10-08T15:11:53;19.87;;;9.40;;
42338;SDS011;27993;45.392;10.918;2023-10-08T15:14:24;17.02;;;8.43;;
42338;SDS011;27993;45.392;10.918;2023-10-08T15:16:56;23.45;;;9.05;;
42338;SDS011;27993;45.392;10.918;2023-10-08T15:19:27;19.40;;;9.07;;
42338;SDS011;27993;45.392;10.918;2023-10-08T15:21:59;23.70;;;9.48;;
42338;SDS011;27993;45.392;10.918;2023-10-08T15:24:31;21.27;;;9.80;;